sensor_id;sensor_type;location;lat;lon;timestamp;pressure;altitude;pressure_sealevel;temperature;humidity
16664;BME280;8445;51.270;9.434;2022-10-16T00:01:30;99090.72;;;15.81;86.78
16664;BME280;8445;51.270;9.434;2022-10-16T00:04:02;99091.72;;;15.80;86.44
16664;BME280;8445;51.270;9.434;2022-10-16T00:06:31;99089.38;;;15.77;86.72
16664;BME280;8445;51.270;9.434;2022-10-16T00:08:58;99096.75;;;15.83;86.61
16664;BME280;8445;51.270;9.434;2022-10-16T00:11:31;99095.75;;;15.84;87.29
16664;BME280;8445;51.270;9.434;2022-10-16T00:14:01;99110.09;;;15.83;86.43
16664;BME280;8445;51.270;9.434;2022-10-16T00:16:28;99108.41;;;15.82;86.37
16664;BME280;8445;51.270;9.434;2022-10-16T00:18:54;99106.41;;;15.84;86.31
16664;BME280;8445;51.270;9.434;2022-10-16T00:21:26;99096.56;;;15.85;86.93
16664;BME280;8445;51.270;9.434;2022-10-16T00:23:57;99089.06;;;15.80;87.05
16664;BME280;8445;51.270;9.434;2022-10-16T00:26:25;99089.38;;;15.77;86.95
16664;BME280;8445;51.270;9.434;2022-10-16T00:28:52;99098.72;;;15.81;87.11
16664;BME280;8445;51.270;9.434;2022-10-16T00:31:21;99094.38;;;15.80;87.24
16664;BME280;8445;51.270;9.434;2022-10-16T00:33:47;99099.72;;;15.80;86.97
16664;BME280;8445;51.270;9.434;2022-10-16T00:36:17;99091.56;;;15.82;87.32
16664;BME280;8445;51.270;9.434;2022-10-16T00:38:44;99101.09;;;15.84;86.94
16664;BME280;8445;51.270;9.434;2022-10-16T00:41:14;99091.72;;;15.80;87.36
16664;BME280;8445;51.270;9.434;2022-10-16T00:46:35;99091.81;;;15.89;88.41
16664;BME280;8445;51.270;9.434;2022-10-16T00:49:13;99104.47;;;15.87;88.16
16664;BME280;8445;51.270;9.434;2022-10-16T00:51:47;99101.09;;;15.84;87.48
16664;BME280;8445;51.270;9.434;2022-10-16T00:54:21;99094.91;;;15.84;87.80
16664;BME280;8445;51.270;9.434;2022-10-16T00:56:49;99097.75;;;15.82;87.24
16664;BME280;8445;51.270;9.434;2022-10-16T00:59:29;99094.31;;;15.90;87.87
16664;BME280;8445;51.270;9.434;2022-10-16T01:01:57;99101.91;;;15.85;86.99
16664;BME280;8445;51.270;9.434;2022-10-16T01:04:25;99100.41;;;15.82;87.25
16664;BME280;8445;51.270;9.434;2022-10-16T01:09:41;99100.41;;;15.82;88.73
16664;BME280;8445;51.270;9.434;2022-10-16T01:14:58;99109.19;;;15.75;87.88
16664;BME280;8445;51.270;9.434;2022-10-16T01:17:35;99111.66;;;15.68;87.19
16664;BME280;8445;51.270;9.434;2022-10-16T01:20:45;99116.03;;;15.77;88.84
16664;BME280;8445;51.270;9.434;2022-10-16T01:29:33;99122.88;;;15.80;89.00
16664;BME280;8445;51.270;9.434;2022-10-16T01:32:10;99115.34;;;15.75;88.33
16664;BME280;8445;51.270;9.434;2022-10-16T01:34:53;99118.84;;;15.76;88.42
16664;BME280;8445;51.270;9.434;2022-10-16T01:40:16;99125.66;;;15.70;87.45
16664;BME280;8445;51.270;9.434;2022-10-16T01:43:00;99123.06;;;15.78;88.31
16664;BME280;8445;51.270;9.434;2022-10-16T01:45:29;99123.06;;;15.78;87.31
16664;BME280;8445;51.270;9.434;2022-10-16T01:47:58;99117.41;;;15.81;87.33
16664;BME280;8445;51.270;9.434;2022-10-16T01:50:27;99113.75;;;15.82;87.64
16664;BME280;8445;51.270;9.434;2022-10-16T01:52:56;99124.41;;;15.82;87.42
16664;BME280;8445;51.270;9.434;2022-10-16T01:55:33;99137.56;;;15.84;87.63
16664;BME280;8445;51.270;9.434;2022-10-16T01:58:07;99141.91;;;15.85;87.16
16664;BME280;8445;51.270;9.434;2022-10-16T02:00:38;99133.81;;;15.87;87.42
16664;BME280;8445;51.270;9.434;2022-10-16T02:03:06;99133.09;;;15.84;87.40
16664;BME280;8445;51.270;9.434;2022-10-16T02:05:53;99132.63;;;15.89;88.17
16664;BME280;8445;51.270;9.434;2022-10-16T02:08:27;99138.44;;;15.84;87.69
16664;BME280;8445;51.270;9.434;2022-10-16T02:10:56;99139.19;;;15.77;87.47
16664;BME280;8445;51.270;9.434;2022-10-16T02:13:37;99139.66;;;15.72;88.23
16664;BME280;8445;51.270;9.434;2022-10-16T02:16:04;99133.59;;;15.62;87.01
16664;BME280;8445;51.270;9.434;2022-10-16T02:18:30;99123.84;;;15.52;87.32
16664;BME280;8445;51.270;9.434;2022-10-16T02:21:04;99119.81;;;15.48;87.96
16664;BME280;8445;51.270;9.434;2022-10-16T02:23:56;99126.44;;;15.44;88.55
16664;BME280;8445;51.270;9.434;2022-10-16T02:26:37;99130.34;;;15.32;88.12
16664;BME280;8445;51.270;9.434;2022-10-16T02:29:12;99144.63;;;15.22;88.06
16664;BME280;8445;51.270;9.434;2022-10-16T02:31:45;99143.53;;;15.15;87.58
16664;BME280;8445;51.270;9.434;2022-10-16T02:34:15;99132.94;;;15.05;87.56
16664;BME280;8445;51.270;9.434;2022-10-16T02:36:44;99141.19;;;14.94;87.57
16664;BME280;8445;51.270;9.434;2022-10-16T02:39:11;99136.59;;;14.86;87.06
16664;BME280;8445;51.270;9.434;2022-10-16T02:41:38;99130.03;;;14.80;87.33
16664;BME280;8445;51.270;9.434;2022-10-16T02:44:04;99125.44;;;14.73;87.07
16664;BME280;8445;51.270;9.434;2022-10-16T02:46:29;99132.06;;;14.68;86.81
16664;BME280;8445;51.270;9.434;2022-10-16T02:48:55;99153.50;;;14.67;87.57
16664;BME280;8445;51.270;9.434;2022-10-16T02:51:21;99150.00;;;14.66;87.17
16664;BME280;8445;51.270;9.434;2022-10-16T02:53:47;99139.91;;;14.70;87.55
16664;BME280;8445;51.270;9.434;2022-10-16T02:56:13;99139.44;;;14.75;87.53
16664;BME280;8445;51.270;9.434;2022-10-16T02:58:38;99143.78;;;14.76;87.54
16664;BME280;8445;51.270;9.434;2022-10-16T03:01:04;99150.78;;;14.77;87.40
16664;BME280;8445;51.270;9.434;2022-10-16T03:03:30;99152.75;;;14.75;87.55
16664;BME280;8445;51.270;9.434;2022-10-16T03:05:56;99153.09;;;14.72;87.67
16664;BME280;8445;51.270;9.434;2022-10-16T03:08:22;99153.78;;;14.64;87.33
16664;BME280;8445;51.270;9.434;2022-10-16T03:10:51;99164.91;;;14.59;87.20
16664;BME280;8445;51.270;9.434;2022-10-16T03:13:17;99159.56;;;14.59;87.60
16664;BME280;8445;51.270;9.434;2022-10-16T03:15:43;99161.25;;;14.60;87.70
16664;BME280;8445;51.270;9.434;2022-10-16T03:18:09;99172.19;;;14.57;87.90
16664;BME280;8445;51.270;9.434;2022-10-16T03:20:35;99174.84;;;14.57;87.65
16664;BME280;8445;51.270;9.434;2022-10-16T03:23:01;99172.31;;;14.56;87.60
16664;BME280;8445;51.270;9.434;2022-10-16T03:25:28;99178.50;;;14.56;87.62
16664;BME280;8445;51.270;9.434;2022-10-16T03:27:54;99169.41;;;14.49;87.83
16664;BME280;8445;51.270;9.434;2022-10-16T03:30:20;99177.53;;;14.47;87.74
16664;BME280;8445;51.270;9.434;2022-10-16T03:32:46;99172.97;;;14.40;87.50
16664;BME280;8445;51.270;9.434;2022-10-16T03:35:13;99164.16;;;14.29;87.30
16664;BME280;8445;51.270;9.434;2022-10-16T03:37:39;99172.72;;;14.23;87.56
16664;BME280;8445;51.270;9.434;2022-10-16T03:40:05;99181.56;;;14.23;87.54
16664;BME280;8445;51.270;9.434;2022-10-16T03:42:31;99184.34;;;14.22;87.69
16664;BME280;8445;51.270;9.434;2022-10-16T03:44:57;99187.13;;;14.30;87.62
16664;BME280;8445;51.270;9.434;2022-10-16T03:47:23;99176.19;;;14.33;87.73
16664;BME280;8445;51.270;9.434;2022-10-16T03:49:49;99197.09;;;14.28;87.52
16664;BME280;8445;51.270;9.434;2022-10-16T03:52:16;99207.88;;;14.17;87.64
16664;BME280;8445;51.270;9.434;2022-10-16T03:54:42;99191.44;;;14.03;87.07
16664;BME280;8445;51.270;9.434;2022-10-16T03:57:08;99189.91;;;13.91;87.43
16664;BME280;8445;51.270;9.434;2022-10-16T03:59:34;99204.31;;;13.88;87.15
16664;BME280;8445;51.270;9.434;2022-10-16T04:01:59;99202.09;;;13.84;87.03
16664;BME280;8445;51.270;9.434;2022-10-16T04:04:25;99199.03;;;13.78;86.82
16664;BME280;8445;51.270;9.434;2022-10-16T04:06:51;99212.59;;;13.75;87.40
16664;BME280;8445;51.270;9.434;2022-10-16T04:09:17;99203.22;;;13.71;86.85
16664;BME280;8445;51.270;9.434;2022-10-16T04:11:43;99206.84;;;13.70;86.82
16664;BME280;8445;51.270;9.434;2022-10-16T04:14:09;99215.69;;;13.71;86.43
16664;BME280;8445;51.270;9.434;2022-10-16T04:16:35;99220.31;;;13.69;86.33
16664;BME280;8445;51.270;9.434;2022-10-16T04:19:00;99212.47;;;13.67;86.00
16664;BME280;8445;51.270;9.434;2022-10-16T04:21:26;99230.38;;;13.65;86.80
16664;BME280;8445;51.270;9.434;2022-10-16T04:23:52;99225.31;;;13.62;87.30
16664;BME280;8445;51.270;9.434;2022-10-16T04:26:18;99218.63;;;13.68;87.12
16664;BME280;8445;51.270;9.434;2022-10-16T04:28:44;99220.03;;;13.72;87.37
16664;BME280;8445;51.270;9.434;2022-10-16T04:31:09;99222.94;;;13.78;87.12
16664;BME280;8445;51.270;9.434;2022-10-16T04:33:35;99216.66;;;13.79;87.30
16664;BME280;8445;51.270;9.434;2022-10-16T04:36:03;99198.47;;;13.85;87.79
16664;BME280;8445;51.270;9.434;2022-10-16T04:38:29;99189.78;;;13.83;87.73
16664;BME280;8445;51.270;9.434;2022-10-16T04:40:55;99204.59;;;13.85;87.75
16664;BME280;8445;51.270;9.434;2022-10-16T04:43:22;99206.28;;;13.86;87.86
16664;BME280;8445;51.270;9.434;2022-10-16T04:45:48;99209.34;;;13.91;87.61
16664;BME280;8445;51.270;9.434;2022-10-16T04:48:16;99197.88;;;13.91;87.55
16664;BME280;8445;51.270;9.434;2022-10-16T04:50:44;99196.47;;;13.97;87.73
16664;BME280;8445;51.270;9.434;2022-10-16T04:53:10;99193.41;;;14.01;87.80
16664;BME280;8445;51.270;9.434;2022-10-16T04:55:36;99195.06;;;14.02;88.09
16664;BME280;8445;51.270;9.434;2022-10-16T04:58:03;99179.41;;;13.99;88.28
16664;BME280;8445;51.270;9.434;2022-10-16T05:00:29;99170.69;;;14.07;88.47
16664;BME280;8445;51.270;9.434;2022-10-16T05:02:55;99156.97;;;14.12;88.48
16664;BME280;8445;51.270;9.434;2022-10-16T05:05:21;99140.69;;;14.15;88.82
16664;BME280;8445;51.270;9.434;2022-10-16T05:07:48;99140.69;;;14.15;88.59
16664;BME280;8445;51.270;9.434;2022-10-16T05:10:16;99164.63;;;14.15;88.37
16664;BME280;8445;51.270;9.434;2022-10-16T05:12:42;99177.66;;;14.18;88.40
16664;BME280;8445;51.270;9.434;2022-10-16T05:15:09;99183.53;;;14.21;88.38
16664;BME280;8445;51.270;9.434;2022-10-16T05:17:35;99183.25;;;14.25;89.18
16664;BME280;8445;51.270;9.434;2022-10-16T05:20:01;99190.25;;;14.26;88.96
16664;BME280;8445;51.270;9.434;2022-10-16T05:22:27;99190.78;;;14.29;89.20
16664;BME280;8445;51.270;9.434;2022-10-16T05:24:53;99206.75;;;14.29;89.14
16664;BME280;8445;51.270;9.434;2022-10-16T05:27:19;99209.28;;;14.31;88.97
16664;BME280;8445;51.270;9.434;2022-10-16T05:29:48;99216.50;;;14.38;89.40
16664;BME280;8445;51.270;9.434;2022-10-16T05:32:16;99227.72;;;14.42;89.45
16664;BME280;8445;51.270;9.434;2022-10-16T05:34:42;99221.97;;;14.47;88.94
16664;BME280;8445;51.270;9.434;2022-10-16T05:37:09;99220.53;;;14.52;89.22
16664;BME280;8445;51.270;9.434;2022-10-16T05:39:35;99229.75;;;14.58;89.40
16664;BME280;8445;51.270;9.434;2022-10-16T05:42:05;99221.19;;;14.64;91.20
16664;BME280;8445;51.270;9.434;2022-10-16T05:44:31;99229.63;;;14.70;89.91
16664;BME280;8445;51.270;9.434;2022-10-16T05:46:57;99229.16;;;14.74;89.52
16664;BME280;8445;51.270;9.434;2022-10-16T05:49:23;99237.53;;;14.79;89.46
16664;BME280;8445;51.270;9.434;2022-10-16T05:51:49;99236.69;;;14.79;90.98
16664;BME280;8445;51.270;9.434;2022-10-16T05:54:15;99245.06;;;14.84;89.69
16664;BME280;8445;51.270;9.434;2022-10-16T05:56:41;99252.78;;;14.87;88.90
16664;BME280;8445;51.270;9.434;2022-10-16T05:59:07;99251.78;;;14.88;89.14
16664;BME280;8445;51.270;9.434;2022-10-16T06:01:33;99261.16;;;14.92;89.77
16664;BME280;8445;51.270;9.434;2022-10-16T06:04:01;99273.50;;;14.93;89.71
16664;BME280;8445;51.270;9.434;2022-10-16T06:06:28;99279.44;;;15.05;88.92
16664;BME280;8445;51.270;9.434;2022-10-16T06:08:56;99266.41;;;15.12;88.43
16664;BME280;8445;51.270;9.434;2022-10-16T06:11:28;99265.81;;;15.18;88.46
16664;BME280;8445;51.270;9.434;2022-10-16T06:13:59;99263.66;;;15.22;89.28
16664;BME280;8445;51.270;9.434;2022-10-16T06:16:29;99263.22;;;15.26;88.11
16664;BME280;8445;51.270;9.434;2022-10-16T06:18:55;99281.78;;;15.18;89.36
16664;BME280;8445;51.270;9.434;2022-10-16T06:21:24;99299.44;;;15.19;90.03
16664;BME280;8445;51.270;9.434;2022-10-16T06:23:52;99283.47;;;15.19;89.39
16664;BME280;8445;51.270;9.434;2022-10-16T06:26:21;99291.56;;;15.27;89.74
16664;BME280;8445;51.270;9.434;2022-10-16T06:28:48;99276.09;;;15.31;89.49
16664;BME280;8445;51.270;9.434;2022-10-16T06:31:15;99274.94;;;15.34;89.62
16664;BME280;8445;51.270;9.434;2022-10-16T06:33:42;99274.25;;;15.32;89.37
16664;BME280;8445;51.270;9.434;2022-10-16T06:36:12;99297.81;;;15.36;89.21
16664;BME280;8445;51.270;9.434;2022-10-16T06:38:42;99285.94;;;15.31;90.22
16664;BME280;8445;51.270;9.434;2022-10-16T06:41:15;99306.03;;;15.43;89.63
16664;BME280;8445;51.270;9.434;2022-10-16T06:43:41;99315.31;;;15.39;88.55
16664;BME280;8445;51.270;9.434;2022-10-16T06:46:10;99315.59;;;15.36;88.66
16664;BME280;8445;51.270;9.434;2022-10-16T06:48:36;99318.72;;;15.31;88.16
16664;BME280;8445;51.270;9.434;2022-10-16T06:51:12;99324.88;;;15.32;88.50
16664;BME280;8445;51.270;9.434;2022-10-16T06:53:45;99319.19;;;15.26;88.30
16664;BME280;8445;51.270;9.434;2022-10-16T06:56:21;99305.88;;;15.26;88.77
16664;BME280;8445;51.270;9.434;2022-10-16T06:58:50;99308.91;;;15.32;88.79
16664;BME280;8445;51.270;9.434;2022-10-16T07:01:19;99320.63;;;15.39;88.60
16664;BME280;8445;51.270;9.434;2022-10-16T07:03:46;99329.31;;;15.41;88.20
16664;BME280;8445;51.270;9.434;2022-10-16T07:06:16;99346.69;;;15.45;88.03
16664;BME280;8445;51.270;9.434;2022-10-16T07:08:46;99351.34;;;15.43;87.53
16664;BME280;8445;51.270;9.434;2022-10-16T07:11:18;99358.94;;;15.38;87.30
16664;BME280;8445;51.270;9.434;2022-10-16T07:13:46;99358.53;;;15.33;87.09
16664;BME280;8445;51.270;9.434;2022-10-16T07:16:15;99354.91;;;15.34;86.84
16664;BME280;8445;51.270;9.434;2022-10-16T07:18:42;99351.25;;;15.35;86.96
16664;BME280;8445;51.270;9.434;2022-10-16T07:21:17;99357.38;;;15.45;87.03
16664;BME280;8445;51.270;9.434;2022-10-16T07:23:45;99363.47;;;15.55;86.95
16664;BME280;8445;51.270;9.434;2022-10-16T07:26:11;99359.03;;;15.74;86.77
16664;BME280;8445;51.270;9.434;2022-10-16T07:28:38;99372.25;;;15.94;86.89
16664;BME280;8445;51.270;9.434;2022-10-16T07:31:11;99376.06;;;16.09;86.16
16664;BME280;8445;51.270;9.434;2022-10-16T07:33:41;99387.03;;;16.24;85.83
16664;BME280;8445;51.270;9.434;2022-10-16T07:36:09;99380.31;;;16.38;86.16
16664;BME280;8445;51.270;9.434;2022-10-16T07:38:34;99373.91;;;16.49;85.93
16664;BME280;8445;51.270;9.434;2022-10-16T07:41:03;99383.78;;;16.57;84.93
16664;BME280;8445;51.270;9.434;2022-10-16T07:43:33;99391.28;;;16.53;84.90
16664;BME280;8445;51.270;9.434;2022-10-16T07:46:00;99396.75;;;16.52;85.10
16664;BME280;8445;51.270;9.434;2022-10-16T07:48:32;99399.09;;;16.47;84.59
16664;BME280;8445;51.270;9.434;2022-10-16T07:51:00;99417.00;;;16.36;85.00
16664;BME280;8445;51.270;9.434;2022-10-16T07:53:27;99413.97;;;16.31;85.28
16664;BME280;8445;51.270;9.434;2022-10-16T07:56:03;99405.47;;;16.36;85.18
16664;BME280;8445;51.270;9.434;2022-10-16T07:58:30;99415.03;;;16.38;85.38
16664;BME280;8445;51.270;9.434;2022-10-16T08:00:56;99414.34;;;16.36;85.50
16664;BME280;8445;51.270;9.434;2022-10-16T08:03:24;99425.84;;;16.37;85.80
16664;BME280;8445;51.270;9.434;2022-10-16T08:05:50;99436.09;;;16.41;85.63
16664;BME280;8445;51.270;9.434;2022-10-16T08:08:17;99452.47;;;16.47;85.40
16664;BME280;8445;51.270;9.434;2022-10-16T08:10:44;99452.00;;;16.51;85.53
16664;BME280;8445;51.270;9.434;2022-10-16T08:13:10;99450.94;;;16.62;85.70
16664;BME280;8445;51.270;9.434;2022-10-16T08:15:36;99471.06;;;16.74;86.12
16664;BME280;8445;51.270;9.434;2022-10-16T08:18:05;99467.53;;;16.92;86.04
16664;BME280;8445;51.270;9.434;2022-10-16T08:20:33;99461.69;;;17.15;85.44
16664;BME280;8445;51.270;9.434;2022-10-16T08:23:00;99463.47;;;17.32;85.10
16664;BME280;8445;51.270;9.434;2022-10-16T08:25:27;99464.56;;;17.48;85.37
16664;BME280;8445;51.270;9.434;2022-10-16T08:27:53;99486.47;;;17.52;85.07
16664;BME280;8445;51.270;9.434;2022-10-16T08:30:22;99484.59;;;17.44;83.85
16664;BME280;8445;51.270;9.434;2022-10-16T08:32:48;99481.91;;;17.44;83.57
16664;BME280;8445;51.270;9.434;2022-10-16T08:35:15;99482.75;;;17.44;82.31
16664;BME280;8445;51.270;9.434;2022-10-16T08:37:43;99493.75;;;17.41;83.37
16664;BME280;8445;51.270;9.434;2022-10-16T08:40:25;99495.28;;;17.44;82.10
16664;BME280;8445;51.270;9.434;2022-10-16T08:48:57;99480.38;;;17.76;80.79
16664;BME280;8445;51.270;9.434;2022-10-16T08:51:32;99485.50;;;17.96;83.59
16664;BME280;8445;51.270;9.434;2022-10-16T08:54:37;99477.91;;;18.34;78.75
16664;BME280;8445;51.270;9.434;2022-10-16T08:57:22;99492.00;;;18.52;83.86
16664;BME280;8445;51.270;9.434;2022-10-16T08:59:48;99513.47;;;18.77;85.26
16664;BME280;8445;51.270;9.434;2022-10-16T09:02:29;99512.44;;;18.95;74.93
16664;BME280;8445;51.270;9.434;2022-10-16T09:16:30;99524.88;;;19.94;79.08
16664;BME280;8445;51.270;9.434;2022-10-16T09:19:20;99531.22;;;20.33;74.31
16664;BME280;8445;51.270;9.434;2022-10-16T09:21:50;99522.56;;;20.77;82.81
16664;BME280;8445;51.270;9.434;2022-10-16T09:24:19;99521.72;;;21.00;80.30
16664;BME280;8445;51.270;9.434;2022-10-16T09:26:47;99520.63;;;21.09;80.60
16664;BME280;8445;51.270;9.434;2022-10-16T09:29:15;99530.25;;;21.03;79.87
16664;BME280;8445;51.270;9.434;2022-10-16T09:31:42;99517.78;;;20.87;79.88
16664;BME280;8445;51.270;9.434;2022-10-16T09:34:33;99513.69;;;20.68;73.45
16664;BME280;8445;51.270;9.434;2022-10-16T09:37:04;99519.69;;;20.55;79.38
16664;BME280;8445;51.270;9.434;2022-10-16T09:42:34;99525.09;;;21.17;73.36
16664;BME280;8445;51.270;9.434;2022-10-16T09:45:01;99521.91;;;21.67;83.52
16664;BME280;8445;51.270;9.434;2022-10-16T09:47:30;99537.34;;;21.73;78.26
16664;BME280;8445;51.270;9.434;2022-10-16T09:49:58;99527.69;;;21.64;79.92
16664;BME280;8445;51.270;9.434;2022-10-16T09:52:29;99522.34;;;21.40;78.84
16664;BME280;8445;51.270;9.434;2022-10-16T09:54:59;99523.06;;;21.34;72.62
16664;BME280;8445;51.270;9.434;2022-10-16T09:57:28;99533.25;;;21.24;75.09
16664;BME280;8445;51.270;9.434;2022-10-16T09:59:58;99526.91;;;21.01;74.46
16664;BME280;8445;51.270;9.434;2022-10-16T10:02:37;99541.91;;;20.72;71.74
16664;BME280;8445;51.270;9.434;2022-10-16T10:05:27;99544.94;;;20.46;68.17
16664;BME280;8445;51.270;9.434;2022-10-16T10:08:02;99533.97;;;20.24;66.62
16664;BME280;8445;51.270;9.434;2022-10-16T10:10:37;99537.34;;;20.18;66.99
16664;BME280;8445;51.270;9.434;2022-10-16T10:13:22;99544.84;;;20.31;66.03
16664;BME280;8445;51.270;9.434;2022-10-16T10:15:51;99543.22;;;20.22;75.00
16664;BME280;8445;51.270;9.434;2022-10-16T10:18:20;99552.16;;;20.06;70.49
16664;BME280;8445;51.270;9.434;2022-10-16T10:21:00;99557.63;;;19.89;67.45
16664;BME280;8445;51.270;9.434;2022-10-16T10:23:28;99544.19;;;19.81;73.87
16664;BME280;8445;51.270;9.434;2022-10-16T10:26:21;99549.25;;;19.67;67.15
16664;BME280;8445;51.270;9.434;2022-10-16T10:29:06;99551.63;;;19.62;69.55
16664;BME280;8445;51.270;9.434;2022-10-16T10:34:51;99570.94;;;19.49;71.08
16664;BME280;8445;51.270;9.434;2022-10-16T10:37:55;99567.38;;;19.57;66.71
16664;BME280;8445;51.270;9.434;2022-10-16T10:45:59;99579.63;;;19.60;69.68
16664;BME280;8445;51.270;9.434;2022-10-16T10:49:07;99573.44;;;19.51;64.05
16664;BME280;8445;51.270;9.434;2022-10-16T10:54:23;99574.75;;;19.63;64.43
16664;BME280;8445;51.270;9.434;2022-10-16T11:08:49;99577.31;;;20.13;62.77
16664;BME280;8445;51.270;9.434;2022-10-16T11:11:39;99567.09;;;20.08;56.13
16664;BME280;8445;51.270;9.434;2022-10-16T11:16:59;99552.66;;;20.09;58.99
16664;BME280;8445;51.270;9.434;2022-10-16T11:24:54;99563.97;;;19.80;57.45
16664;BME280;8445;51.270;9.434;2022-10-16T11:30:23;99564.66;;;19.90;58.96
16664;BME280;8445;51.270;9.434;2022-10-16T11:38:30;99558.72;;;20.03;55.12
16664;BME280;8445;51.270;9.434;2022-10-16T11:41:10;99545.72;;;20.23;64.90
16664;BME280;8445;51.270;9.434;2022-10-16T11:43:49;99550.69;;;20.35;62.73
16664;BME280;8445;51.270;9.434;2022-10-16T11:46:26;99549.94;;;20.49;65.33
16664;BME280;8445;51.270;9.434;2022-10-16T11:49:09;99538.53;;;20.47;65.75
16664;BME280;8445;51.270;9.434;2022-10-16T11:52:44;99547.13;;;20.66;58.06
16664;BME280;8445;51.270;9.434;2022-10-16T11:55:19;99545.03;;;20.84;62.88
16664;BME280;8445;51.270;9.434;2022-10-16T11:57:54;99550.28;;;21.01;64.80
16664;BME280;8445;51.270;9.434;2022-10-16T12:00:40;99550.50;;;21.14;60.52
16664;BME280;8445;51.270;9.434;2022-10-16T12:06:14;99552.59;;;21.42;57.18
16664;BME280;8445;51.270;9.434;2022-10-16T12:08:46;99554.56;;;21.48;61.65
16664;BME280;8445;51.270;9.434;2022-10-16T12:14:07;99553.97;;;21.76;59.42
16664;BME280;8445;51.270;9.434;2022-10-16T12:16:33;99549.09;;;21.87;63.72
16664;BME280;8445;51.270;9.434;2022-10-16T12:19:18;99546.78;;;21.84;58.51
16664;BME280;8445;51.270;9.434;2022-10-16T12:21:47;99552.84;;;21.71;63.46
16664;BME280;8445;51.270;9.434;2022-10-16T12:24:37;99550.50;;;21.68;54.15
16664;BME280;8445;51.270;9.434;2022-10-16T12:27:32;99558.91;;;21.50;54.42
16664;BME280;8445;51.270;9.434;2022-10-16T12:30:06;99554.19;;;21.52;61.67
16664;BME280;8445;51.270;9.434;2022-10-16T12:32:39;99554.19;;;21.52;63.07
16664;BME280;8445;51.270;9.434;2022-10-16T12:35:24;99550.63;;;21.74;60.39
16664;BME280;8445;51.270;9.434;2022-10-16T12:37:54;99561.47;;;21.81;62.93
16664;BME280;8445;51.270;9.434;2022-10-16T12:40:35;99559.88;;;21.87;62.73
16664;BME280;8445;51.270;9.434;2022-10-16T12:43:41;99558.78;;;21.81;55.78
16664;BME280;8445;51.270;9.434;2022-10-16T12:48:43;99559.16;;;21.63;61.86
16664;BME280;8445;51.270;9.434;2022-10-16T12:54:12;99562.41;;;21.35;55.40
16664;BME280;8445;51.270;9.434;2022-10-16T12:57:30;99566.28;;;21.17;54.83
16664;BME280;8445;51.270;9.434;2022-10-16T13:00:45;99561.63;;;21.11;57.42
16664;BME280;8445;51.270;9.434;2022-10-16T13:07:15;99564.09;;;21.74;56.37
16664;BME280;8445;51.270;9.434;2022-10-16T13:12:52;99558.06;;;22.39;52.15
16664;BME280;8445;51.270;9.434;2022-10-16T13:19:28;99575.25;;;22.53;54.93
16664;BME280;8445;51.270;9.434;2022-10-16T13:24:53;99592.88;;;22.41;59.33
16664;BME280;8445;51.270;9.434;2022-10-16T13:28:00;99588.19;;;22.28;57.60
16664;BME280;8445;51.270;9.434;2022-10-16T13:30:30;99592.19;;;22.17;59.11
16664;BME280;8445;51.270;9.434;2022-10-16T13:33:15;99592.28;;;22.09;56.54
16664;BME280;8445;51.270;9.434;2022-10-16T13:35:56;99592.09;;;21.95;60.71
16664;BME280;8445;51.270;9.434;2022-10-16T13:38:26;99601.66;;;21.83;62.37
16664;BME280;8445;51.270;9.434;2022-10-16T13:41:20;99607.94;;;21.60;61.17
16664;BME280;8445;51.270;9.434;2022-10-16T13:43:54;99608.09;;;21.43;60.12
16664;BME280;8445;51.270;9.434;2022-10-16T13:46:24;99610.56;;;21.30;62.79
16664;BME280;8445;51.270;9.434;2022-10-16T13:49:15;99611.47;;;21.22;60.15
16664;BME280;8445;51.270;9.434;2022-10-16T13:51:41;99612.75;;;21.11;62.45
16664;BME280;8445;51.270;9.434;2022-10-16T13:54:10;99614.63;;;21.02;62.16
16664;BME280;8445;51.270;9.434;2022-10-16T13:56:39;99610.97;;;20.95;62.03
16664;BME280;8445;51.270;9.434;2022-10-16T13:59:27;99603.88;;;21.02;60.14
16664;BME280;8445;51.270;9.434;2022-10-16T14:02:05;99604.59;;;21.20;59.66
16664;BME280;8445;51.270;9.434;2022-10-16T14:04:39;99608.00;;;21.37;62.24
16664;BME280;8445;51.270;9.434;2022-10-16T14:07:05;99610.72;;;21.52;62.82
16664;BME280;8445;51.270;9.434;2022-10-16T14:09:31;99608.91;;;21.67;62.41
16664;BME280;8445;51.270;9.434;2022-10-16T14:12:08;99617.00;;;21.82;61.17
16664;BME280;8445;51.270;9.434;2022-10-16T14:14:43;99614.75;;;21.86;59.69
16664;BME280;8445;51.270;9.434;2022-10-16T14:17:22;99614.88;;;21.77;56.34
16664;BME280;8445;51.270;9.434;2022-10-16T14:19:51;99617.28;;;21.72;60.99
16664;BME280;8445;51.270;9.434;2022-10-16T14:22:37;99624.16;;;21.52;57.08
16664;BME280;8445;51.270;9.434;2022-10-16T14:27:55;99614.25;;;21.29;61.52
16664;BME280;8445;51.270;9.434;2022-10-16T14:30:22;99613.81;;;21.02;61.37
16664;BME280;8445;51.270;9.434;2022-10-16T14:33:18;99617.81;;;20.83;57.94
16664;BME280;8445;51.270;9.434;2022-10-16T14:38:32;99631.94;;;20.37;61.01
16664;BME280;8445;51.270;9.434;2022-10-16T14:41:00;99612.72;;;20.17;61.17
16664;BME280;8445;51.270;9.434;2022-10-16T14:43:42;99620.31;;;20.05;60.24
16664;BME280;8445;51.270;9.434;2022-10-16T14:46:16;99631.06;;;19.88;60.94
16664;BME280;8445;51.270;9.434;2022-10-16T14:48:46;99637.47;;;19.79;61.44
16664;BME280;8445;51.270;9.434;2022-10-16T14:51:19;99633.97;;;19.70;60.74
16664;BME280;8445;51.270;9.434;2022-10-16T14:53:49;99641.50;;;19.75;61.85
16664;BME280;8445;51.270;9.434;2022-10-16T14:56:27;99630.75;;;19.83;61.36
16664;BME280;8445;51.270;9.434;2022-10-16T14:58:55;99637.81;;;19.92;61.82
16664;BME280;8445;51.270;9.434;2022-10-16T15:01:22;99639.47;;;20.02;61.97
16664;BME280;8445;51.270;9.434;2022-10-16T15:03:48;99640.09;;;20.04;61.99
16664;BME280;8445;51.270;9.434;2022-10-16T15:06:15;99640.75;;;20.14;61.69
16664;BME280;8445;51.270;9.434;2022-10-16T15:08:42;99638.72;;;20.16;61.54
16664;BME280;8445;51.270;9.434;2022-10-16T15:11:14;99644.78;;;20.18;61.24
16664;BME280;8445;51.270;9.434;2022-10-16T15:13:41;99642.09;;;20.18;61.80
16664;BME280;8445;51.270;9.434;2022-10-16T15:16:16;99644.63;;;20.20;59.85
16664;BME280;8445;51.270;9.434;2022-10-16T15:18:43;99644.44;;;20.21;61.48
16664;BME280;8445;51.270;9.434;2022-10-16T15:21:24;99648.28;;;20.27;60.72
16664;BME280;8445;51.270;9.434;2022-10-16T15:23:50;99644.63;;;20.20;61.59